createdAt,value
2023-05-16T00:01:05.167Z,23.50
2023-05-16T00:09:10.481Z,23.00
2023-05-16T00:17:20.633Z,22.90
2023-05-16T00:25:26.604Z,22.80
2023-05-16T00:33:34.661Z,22.60
2023-05-16T00:41:40.305Z,22.70
2023-05-16T00:49:48.296Z,22.60
2023-05-16T00:57:55.781Z,22.90
2023-05-16T01:06:05.259Z,22.80
2023-05-16T01:14:19.660Z,22.70
2023-05-16T01:22:40.748Z,22.60
2023-05-16T01:30:49.148Z,22.70
2023-05-16T01:39:04.454Z,22.60
2023-05-16T01:47:16.582Z,22.50
2023-05-16T01:55:27.188Z,22.40
2023-05-16T02:03:35.562Z,22.30
2023-05-16T02:11:41.110Z,22.30
2023-05-16T02:19:49.098Z,22.40
2023-05-16T02:27:54.579Z,22.30
2023-05-16T02:36:02.566Z,22.00
2023-05-16T02:44:08.470Z,22.00
2023-05-16T02:52:16.442Z,22.10
2023-05-16T03:00:22.752Z,22.40
2023-05-16T03:08:31.009Z,21.90
2023-05-16T03:16:37.085Z,21.90
2023-05-16T03:24:45.203Z,22.10
2023-05-16T03:32:50.677Z,21.80
2023-05-16T03:40:59.627Z,21.70
2023-05-16T03:49:05.033Z,21.60
2023-05-16T03:57:13.060Z,21.30
2023-05-16T04:05:18.413Z,21.00
2023-05-16T04:13:26.594Z,20.40
2023-05-16T04:21:32.085Z,20.30
2023-05-16T04:29:39.994Z,20.60
2023-05-16T04:37:45.350Z,20.50
2023-05-16T04:45:54.240Z,20.90
2023-05-16T04:53:59.702Z,21.10
2023-05-16T05:02:08.253Z,21.50
2023-05-16T05:10:14.781Z,21.40
2023-05-16T05:18:22.927Z,21.20
2023-05-16T05:26:29.292Z,21.50
2023-05-16T05:34:37.442Z,21.40
2023-05-16T05:42:46.118Z,21.60
2023-05-16T05:50:55.108Z,21.80
2023-05-16T05:59:01.330Z,20.90
2023-05-16T06:07:16.365Z,20.90
2023-05-16T06:15:23.221Z,20.80
2023-05-16T06:23:31.434Z,20.60
2023-05-16T06:31:36.931Z,21.30
2023-05-16T06:39:45.346Z,21.30
2023-05-16T06:47:51.071Z,21.60
2023-05-16T06:55:59.442Z,22.00
2023-05-16T07:04:05.300Z,22.30
2023-05-16T07:12:13.901Z,22.60
2023-05-16T07:20:19.381Z,23.30
2023-05-16T07:28:27.403Z,23.90
2023-05-16T07:36:33.378Z,24.10
2023-05-16T07:44:41.482Z,24.10
2023-05-16T07:52:47.108Z,23.90
2023-05-16T08:00:55.231Z,24.30
2023-05-16T08:09:02.899Z,25.10
2023-05-16T08:17:11.004Z,25.60
2023-05-16T08:25:16.556Z,26.20
2023-05-16T08:33:24.815Z,26.40
2023-05-16T08:41:30.356Z,26.40
2023-05-16T08:49:39.028Z,26.80
2023-05-16T08:57:44.751Z,27.40
2023-05-16T09:14:53.504Z,28.30
2023-05-16T09:41:19.833Z,29.00
2023-05-16T10:07:17.367Z,29.30
2023-05-16T10:24:45.630Z,30.20
2023-05-16T10:50:44.318Z,30.20
2023-05-16T10:59:38.963Z,30.90
2023-05-16T11:17:02.014Z,30.80
2023-05-16T11:25:51.535Z,30.10
2023-05-16T11:34:40.874Z,30.00
2023-05-16T12:17:36.555Z,39.90
2023-05-16T12:25:47.894Z,40.80
2023-05-16T12:33:58.709Z,40.90
2023-05-16T12:42:09.817Z,40.80
2023-05-16T12:50:20.459Z,38.40
2023-05-16T12:58:26.539Z,34.00
2023-05-16T13:06:55.593Z,31.80
2023-05-16T13:15:00.293Z,31.10
2023-05-16T13:23:08.604Z,30.40
2023-05-16T13:31:14.083Z,30.70
2023-05-16T13:39:23.461Z,30.10
2023-05-16T13:47:29.081Z,30.40
2023-05-16T13:55:37.423Z,30.40
2023-05-16T14:03:42.863Z,30.60
2023-05-16T14:11:50.958Z,30.70
2023-05-16T14:19:56.706Z,30.00
2023-05-16T14:28:07.093Z,29.00
2023-05-16T14:36:30.061Z,28.50
2023-05-16T14:44:41.030Z,27.90
2023-05-16T14:52:46.677Z,27.90
2023-05-16T15:00:54.873Z,27.20
2023-05-16T15:09:00.330Z,26.60
2023-05-16T15:17:09.161Z,27.00
2023-05-16T15:25:14.873Z,27.00
2023-05-16T15:33:24.402Z,27.10
2023-05-16T15:41:50.660Z,26.60
2023-05-16T15:49:58.440Z,26.60
2023-05-16T15:58:04.212Z,26.00
2023-05-16T16:06:12.269Z,25.90
2023-05-16T16:14:19.372Z,25.80
2023-05-16T16:22:27.569Z,25.60
2023-05-16T16:30:33.100Z,25.50
2023-05-16T16:38:42.243Z,25.60
2023-05-16T16:46:47.841Z,25.60
2023-05-16T16:54:56.068Z,25.40
2023-05-16T17:03:03.958Z,25.20
2023-05-16T17:11:12.230Z,25.00
2023-05-16T17:19:17.800Z,24.80
2023-05-16T17:27:25.826Z,25.20
2023-05-16T17:35:31.458Z,25.30
2023-05-16T17:43:39.666Z,25.50
2023-05-16T17:51:49.623Z,25.20
2023-05-16T17:59:57.771Z,25.30
2023-05-16T18:08:04.744Z,25.10
2023-05-16T18:16:13.629Z,24.80
2023-05-16T18:24:19.047Z,25.30
2023-05-16T18:32:27.272Z,25.50
2023-05-16T18:40:32.890Z,25.00
2023-05-16T18:48:41.232Z,24.50
2023-05-16T18:56:46.766Z,24.40
2023-05-16T19:04:54.891Z,24.30
2023-05-16T19:13:07.196Z,24.80
2023-05-16T19:21:16.027Z,25.00
2023-05-16T19:29:22.644Z,25.00
2023-05-16T19:37:30.774Z,24.50
2023-05-16T19:45:36.444Z,24.40
2023-05-16T19:53:46.303Z,24.80
2023-05-16T20:01:51.680Z,24.70
2023-05-16T20:09:59.710Z,24.50
2023-05-16T20:18:05.394Z,24.80
2023-05-16T20:26:15.022Z,24.50
2023-05-16T20:34:20.435Z,24.40
2023-05-16T20:42:28.507Z,24.30
2023-05-16T20:50:36.245Z,24.30
2023-05-16T20:58:44.404Z,24.40
2023-05-16T21:06:50.028Z,24.70
2023-05-16T21:14:58.063Z,24.20
2023-05-16T21:23:03.843Z,24.30
2023-05-16T21:31:11.894Z,24.60
2023-05-16T21:39:18.646Z,24.50
2023-05-16T21:47:26.844Z,24.60
2023-05-16T21:55:32.251Z,24.30
2023-05-16T22:03:40.356Z,24.10
2023-05-16T22:11:45.846Z,24.30
2023-05-16T22:19:53.812Z,23.90
2023-05-16T22:27:59.236Z,24.20
2023-05-16T22:36:24.140Z,23.90
2023-05-16T22:44:29.796Z,24.00
2023-05-16T22:52:41.239Z,23.70
2023-05-16T23:00:46.729Z,23.60
2023-05-16T23:08:54.801Z,24.10
2023-05-16T23:17:00.203Z,23.80
2023-05-16T23:25:09.253Z,23.80
2023-05-16T23:33:14.865Z,23.80
2023-05-16T23:41:22.994Z,23.80
2023-05-16T23:49:28.525Z,23.60
2023-05-16T23:57:36.525Z,23.70
